Time;durP1;ratioP1;P1;durP2;ratioP2;P2;SDS_P1;SDS_P2;PMS_P1;PMS_P2;Temp;Humidity;BMP_temperature;BMP_pressure;BME280_temperature;BME280_humidity;BME280_pressure;Samples;Min_cycle;Max_cycle;Signal;HPM_P1;HPM_P2
2022/05/19 00:02:04;;;;;;;2.92;2.03;;;23.10;62.30;;;;;;4954178;28;88916;-67
2022/05/19 00:04:30;;;;;;;2.80;1.83;;;23.10;62.60;;;;;;4959043;28;90939;-67
2022/05/19 00:06:55;;;;;;;4.20;2.28;;;23.10;62.50;;;;;;4953188;28;90875;-68
2022/05/19 00:09:21;;;;;;;2.67;2.00;;;23.10;62.30;;;;;;4949006;28;87377;-69
2022/05/19 00:11:48;;;;;;;1.98;1.77;;;23.10;62.30;;;;;;4951103;28;88348;-68
2022/05/19 00:14:14;;;;;;;3.05;2.00;;;23.10;62.40;;;;;;4953364;28;88015;-68
2022/05/19 00:16:40;;;;;;;2.83;2.00;;;23.10;62.60;;;;;;4950739;28;87723;-68
2022/05/19 00:19:07;;;;;;;4.07;2.25;;;23.10;62.60;;;;;;4951424;28;88331;-67
2022/05/19 00:21:35;;;;;;;3.13;2.10;;;23.10;62.50;;;;;;4949718;28;90110;-68
2022/05/19 00:24:01;;;;;;;2.92;1.88;;;23.10;62.60;;;;;;4952011;28;88437;-69
2022/05/19 00:26:26;;;;;;;2.80;1.70;;;23.10;62.50;;;;;;4952214;28;87577;-68
2022/05/19 00:28:52;;;;;;;2.13;1.92;;;23.10;62.60;;;;;;4960051;28;87625;-67
2022/05/19 00:31:18;;;;;;;2.47;1.98;;;23.10;62.50;;;;;;4952209;28;88263;-67
2022/05/19 00:33:44;;;;;;;2.40;1.92;;;23.10;62.50;;;;;;4950916;28;91191;-69
2022/05/19 00:36:16;;;;;;;3.22;2.15;;;23.10;62.70;;;;;;4951334;28;88633;-67
2022/05/19 00:38:42;;;;;;;3.22;2.10;;;23.10;62.60;;;;;;4951656;28;87564;-68
2022/05/19 00:41:09;;;;;;;3.63;2.08;;;23.10;62.80;;;;;;4954717;28;87888;-68
2022/05/19 00:43:40;;;;;;;1.65;1.40;;;23.10;62.80;;;;;;4951253;28;88325;-68
2022/05/19 00:46:41;;;;;;;1.75;1.63;;;23.10;62.80;;;;;;4950284;28;92259;-68
2022/05/19 00:49:14;;;;;;;2.17;2.00;;;23.00;62.80;;;;;;4951019;28;87468;-67
2022/05/19 00:51:44;;;;;;;2.33;2.00;;;23.10;62.70;;;;;;4951189;28;87831;-68
2022/05/19 00:54:16;;;;;;;2.15;1.95;;;23.00;62.20;;;;;;4949527;28;91413;-68
2022/05/19 00:57:17;;;;;;;3.40;1.77;;;23.10;62.30;;;;;;4964752;28;91186;-68
2022/05/19 01:00:05;;;;;;;2.33;1.95;;;23.00;62.30;;;;;;4965922;28;87738;-68
2022/05/19 01:02:38;;;;;;;6.32;2.63;;;23.10;62.20;;;;;;4953235;28;87597;-68
2022/05/19 01:05:12;;;;;;;2.10;1.90;;;23.10;62.30;;;;;;4949316;28;89895;-68
2022/05/19 01:07:47;;;;;;;2.20;1.80;;;23.10;62.30;;;;;;4953171;28;87575;-68
2022/05/19 01:10:14;;;;;;;2.28;2.08;;;23.00;62.30;;;;;;4952173;28;89405;-69
2022/05/19 01:12:40;;;;;;;2.45;2.25;;;23.00;62.20;;;;;;4958923;28;87685;-68
2022/05/19 01:15:07;;;;;;;3.50;1.98;;;23.10;62.30;;;;;;4950911;28;88066;-68
2022/05/19 01:17:36;;;;;;;3.05;1.90;;;23.00;62.40;;;;;;4950939;28;87914;-69
2022/05/19 01:20:11;;;;;;;2.60;2.00;;;23.00;62.30;;;;;;4951618;28;87927;-67
2022/05/19 01:22:45;;;;;;;3.25;2.15;;;23.00;62.40;;;;;;4950582;28;87401;-69
2022/05/19 01:25:51;;;;;;;2.67;1.70;;;23.00;62.40;;;;;;4950434;28;87742;-68
2022/05/19 01:28:17;;;;;;;2.25;2.05;;;23.00;62.40;;;;;;4951489;28;87162;-68
2022/05/19 01:30:44;;;;;;;3.50;2.30;;;23.00;62.40;;;;;;4951618;28;87848;-68
2022/05/19 01:33:10;;;;;;;2.20;2.00;;;23.00;62.30;;;;;;4949669;28;90221;-67
2022/05/19 01:35:36;;;;;;;2.50;2.17;;;23.00;62.60;;;;;;4952519;28;89289;-68
2022/05/19 01:38:05;;;;;;;2.53;1.90;;;23.00;62.50;;;;;;4948266;28;92083;-67
2022/05/19 01:40:56;;;;;;;3.35;2.50;;;23.00;62.70;;;;;;4950837;28;87935;-69
2022/05/19 01:43:43;;;;;;;2.45;1.70;;;23.00;62.50;;;;;;4951133;28;87879;-67
2022/05/19 01:46:24;;;;;;;1.95;1.80;;;23.00;62.50;;;;;;4950441;28;89610;-68
2022/05/19 01:49:00;;;;;;;2.17;1.95;;;23.00;62.40;;;;;;4949737;28;88497;-68
2022/05/19 01:51:32;;;;;;;2.95;1.90;;;23.00;62.40;;;;;;4950849;28;87043;-68
2022/05/19 01:54:06;;;;;;;3.88;1.98;;;23.00;62.30;;;;;;4954964;28;87089;-68
2022/05/19 01:56:39;;;;;;;2.55;2.10;;;23.00;62.50;;;;;;4953162;28;88176;-67
2022/05/19 01:59:31;;;;;;;2.60;1.90;;;23.00;62.30;;;;;;4949736;28;87741;-67
2022/05/19 02:02:12;;;;;;;1.70;1.58;;;23.00;62.20;;;;;;4949699;28;88310;-68
2022/05/19 02:04:48;;;;;;;2.00;1.80;;;23.00;62.10;;;;;;4950165;28;87665;-68
2022/05/19 02:07:18;;;;;;;1.98;1.77;;;23.00;62.40;;;;;;4957585;28;87645;-68
2022/05/19 02:09:49;;;;;;;2.17;1.83;;;23.00;62.10;;;;;;4948982;28;88682;-68
2022/05/19 02:12:15;;;;;;;2.17;1.90;;;23.00;62.20;;;;;;4949176;28;86999;-67
2022/05/19 02:14:46;;;;;;;2.22;1.70;;;23.00;62.20;;;;;;4949546;28;86922;-66
2022/05/19 02:17:14;;;;;;;2.20;1.80;;;23.00;62.10;;;;;;4947707;28;90796;-68
2022/05/19 02:19:44;;;;;;;1.75;1.60;;;23.00;62.20;;;;;;4950121;28;88117;-67
2022/05/19 02:22:14;;;;;;;2.20;1.98;;;23.00;61.90;;;;;;4954663;28;87445;-67
2022/05/19 02:25:05;;;;;;;1.70;1.60;;;23.00;62.10;;;;;;4949340;28;87513;-68
2022/05/19 02:27:38;;;;;;;1.75;1.65;;;23.00;62.00;;;;;;4995662;22;91041;-69
2022/05/19 02:30:10;;;;;;;2.63;2.30;;;23.00;62.00;;;;;;4936044;28;88635;-68
2022/05/19 02:32:36;;;;;;;1.98;1.85;;;23.00;61.90;;;;;;4931687;28;87450;-68
2022/05/19 02:35:03;;;;;;;1.70;1.40;;;23.00;62.20;;;;;;4931303;28;87390;-68
2022/05/19 02:37:29;;;;;;;1.88;1.63;;;23.00;62.00;;;;;;4948708;28;90565;-68
2022/05/19 02:39:55;;;;;;;2.03;1.83;;;23.00;62.10;;;;;;4930332;28;87402;-67
2022/05/19 02:42:20;;;;;;;1.63;1.52;;;23.00;62.10;;;;;;4941106;28;87628;-67
2022/05/19 02:44:46;;;;;;;1.77;1.63;;;23.00;62.10;;;;;;4930762;28;87692;-67
2022/05/19 02:47:12;;;;;;;1.73;1.60;;;23.00;62.00;;;;;;4930019;28;88036;-67
2022/05/19 02:49:38;;;;;;;2.70;1.45;;;23.00;61.90;;;;;;4930203;28;88395;-67
2022/05/19 02:52:04;;;;;;;2.90;1.90;;;23.00;62.00;;;;;;4930487;28;89469;-67
2022/05/19 02:54:30;;;;;;;1.95;1.50;;;23.00;62.20;;;;;;4933580;28;87389;-67
2022/05/19 02:56:55;;;;;;;1.85;1.63;;;23.00;62.20;;;;;;4949345;28;90905;-67
2022/05/19 02:59:21;;;;;;;1.70;1.50;;;23.00;62.00;;;;;;4939479;28;90818;-67
2022/05/19 03:01:47;;;;;;;2.10;1.70;;;23.00;62.10;;;;;;4929339;28;87765;-67
2022/05/19 03:04:12;;;;;;;2.13;1.55;;;23.00;62.00;;;;;;4934705;28;88098;-67
2022/05/19 03:06:38;;;;;;;3.38;1.83;;;23.00;62.00;;;;;;4931587;28;88499;-68
2022/05/19 03:09:07;;;;;;;1.60;1.50;;;23.00;61.80;;;;;;4937343;28;87526;-67
2022/05/19 03:11:33;;;;;;;2.50;1.90;;;23.00;62.00;;;;;;4934048;28;87996;-67
2022/05/19 03:13:59;;;;;;;2.10;1.55;;;23.00;61.90;;;;;;4931919;28;87520;-67
2022/05/19 03:16:25;;;;;;;2.22;1.83;;;22.90;61.90;;;;;;4932738;28;90352;-67
2022/05/19 03:18:51;;;;;;;1.85;1.55;;;23.00;62.00;;;;;;4931570;28;88754;-67
2022/05/19 03:21:16;;;;;;;2.88;1.77;;;23.00;61.90;;;;;;4932141;28;87236;-68
2022/05/19 03:23:42;;;;;;;2.17;1.60;;;22.90;61.90;;;;;;4929495;28;91518;-67
2022/05/19 03:26:08;;;;;;;2.17;1.80;;;23.00;62.20;;;;;;4929231;28;91006;-67
2022/05/19 03:28:34;;;;;;;1.70;1.60;;;23.00;62.20;;;;;;4929246;28;89828;-68
2022/05/19 03:31:00;;;;;;;1.73;1.63;;;23.00;62.10;;;;;;4931496;28;87833;-67
2022/05/19 03:33:26;;;;;;;1.90;1.70;;;23.00;62.10;;;;;;4931141;28;87360;-67
2022/05/19 03:35:56;;;;;;;1.88;1.50;;;23.00;62.20;;;;;;4929832;28;88126;-67
2022/05/19 03:38:22;;;;;;;1.60;1.50;;;23.00;61.90;;;;;;4930167;28;87785;-67
2022/05/19 03:40:47;;;;;;;2.10;1.58;;;23.00;61.90;;;;;;4929898;28;88364;-67
2022/05/19 03:43:13;;;;;;;1.70;1.60;;;23.00;61.90;;;;;;4938254;28;87558;-67
2022/05/19 03:45:39;;;;;;;1.92;1.80;;;23.00;62.10;;;;;;4941240;28;88515;-68
2022/05/19 03:48:05;;;;;;;2.00;1.80;;;23.00;62.20;;;;;;4936173;28;87927;-67
2022/05/19 03:50:31;;;;;;;1.70;1.60;;;22.90;61.90;;;;;;4951489;28;88038;-67
2022/05/19 03:52:57;;;;;;;2.15;1.95;;;22.90;61.90;;;;;;4953530;28;87490;-67
2022/05/19 03:55:23;;;;;;;2.00;1.80;;;23.00;62.10;;;;;;4940574;28;88869;-67
2022/05/19 03:57:48;;;;;;;2.13;1.90;;;22.90;62.00;;;;;;4954392;28;86623;-67
2022/05/19 04:00:14;;;;;;;1.85;1.75;;;22.90;61.90;;;;;;4954368;28;87312;-67
2022/05/19 04:02:41;;;;;;;2.80;2.50;;;22.90;62.10;;;;;;4946942;28;87880;-67
2022/05/19 04:05:08;;;;;;;2.60;1.70;;;22.90;62.20;;;;;;4935032;28;93212;-67
2022/05/19 04:07:33;;;;;;;2.03;1.70;;;22.90;62.00;;;;;;4933796;28;89407;-67
2022/05/19 04:09:59;;;;;;;2.47;1.90;;;22.90;62.00;;;;;;4933837;28;87001;-67
2022/05/19 04:12:25;;;;;;;2.03;1.83;;;22.90;61.90;;;;;;4940442;28;87228;-67
2022/05/19 04:14:51;;;;;;;2.55;2.05;;;22.90;61.90;;;;;;4951848;28;91391;-67
2022/05/19 04:17:16;;;;;;;1.90;1.80;;;22.90;62.10;;;;;;4953172;28;87849;-67
2022/05/19 04:19:42;;;;;;;2.30;2.10;;;22.90;62.00;;;;;;4952900;28;88129;-67
2022/05/19 04:22:08;;;;;;;1.75;1.65;;;22.90;62.00;;;;;;4934444;28;86890;-67
2022/05/19 04:24:33;;;;;;;1.92;1.80;;;22.90;62.10;;;;;;4933947;28;88581;-67
2022/05/19 04:26:59;;;;;;;2.33;2.13;;;23.00;62.10;;;;;;4934439;28;88235;-67
2022/05/19 04:29:25;;;;;;;2.33;2.13;;;22.90;62.10;;;;;;4937860;28;89070;-67
2022/05/19 04:31:51;;;;;;;1.98;1.77;;;22.90;62.10;;;;;;4950605;28;89127;-67
2022/05/19 04:34:16;;;;;;;2.30;2.10;;;22.90;62.20;;;;;;4952471;28;88776;-67
2022/05/19 04:36:42;;;;;;;2.33;2.13;;;22.90;62.10;;;;;;4952294;28;88267;-67
2022/05/19 04:39:08;;;;;;;1.90;1.70;;;22.90;62.10;;;;;;4952308;28;87858;-68
2022/05/19 04:41:33;;;;;;;2.00;1.80;;;22.90;62.10;;;;;;4934343;28;87569;-68
2022/05/19 04:43:59;;;;;;;3.70;2.83;;;23.00;62.00;;;;;;4936528;28;87531;-67
2022/05/19 04:46:25;;;;;;;2.08;1.88;;;22.90;61.90;;;;;;4952316;28;87791;-67
2022/05/19 04:48:50;;;;;;;2.53;2.00;;;22.90;62.00;;;;;;4936158;28;87779;-67
2022/05/19 04:51:16;;;;;;;1.98;1.70;;;22.90;62.00;;;;;;4937315;28;87385;-68
2022/05/19 04:53:42;;;;;;;2.20;1.63;;;22.90;62.10;;;;;;4951974;28;89471;-67
2022/05/19 04:56:07;;;;;;;2.72;2.53;;;23.00;62.40;;;;;;4946943;28;88229;-67
2022/05/19 04:58:33;;;;;;;2.00;1.88;;;23.00;62.50;;;;;;4932873;28;87036;-67
2022/05/19 05:00:58;;;;;;;3.80;1.98;;;23.00;62.50;;;;;;4942480;28;88137;-67
2022/05/19 05:03:24;;;;;;;1.77;1.67;;;23.00;62.40;;;;;;4946174;28;87509;-67
2022/05/19 05:05:50;;;;;;;1.70;1.60;;;23.00;62.50;;;;;;4952711;28;87063;-67
2022/05/19 05:08:16;;;;;;;1.75;1.65;;;23.00;62.30;;;;;;4935014;28;87598;-67
2022/05/19 05:10:42;;;;;;;2.08;1.63;;;23.00;62.20;;;;;;4931079;28;87421;-67
2022/05/19 05:13:14;;;;;;;2.38;1.85;;;23.00;62.20;;;;;;4931941;28;87625;-67
2022/05/19 05:15:41;;;;;;;1.80;1.70;;;23.00;62.10;;;;;;4931550;28;87820;-67
2022/05/19 05:18:08;;;;;;;2.28;1.70;;;23.00;62.10;;;;;;4932145;28;89007;-67
2022/05/19 05:20:34;;;;;;;1.75;1.65;;;23.00;62.20;;;;;;4932863;28;87233;-67
2022/05/19 05:23:00;;;;;;;1.92;1.75;;;23.00;62.10;;;;;;4933306;28;88190;-67
2022/05/19 05:25:29;;;;;;;1.80;1.70;;;23.00;61.90;;;;;;4946136;28;87690;-67
2022/05/19 05:27:56;;;;;;;;;;;23.00;61.80;;;;;;4950777;28;87926;-67
2022/05/19 05:30:21;;;;;;;2.72;2.00;;;23.00;61.80;;;;;;4953502;28;87338;-67
2022/05/19 05:32:47;;;;;;;2.13;1.73;;;23.00;61.70;;;;;;4948862;28;87852;-67
2022/05/19 05:35:13;;;;;;;1.95;1.75;;;23.00;61.80;;;;;;4933971;28;87773;-67
2022/05/19 05:37:38;;;;;;;2.30;1.80;;;23.00;61.80;;;;;;4952072;28;87412;-67
2022/05/19 05:40:07;;;;;;;1.80;1.60;;;23.00;61.70;;;;;;4938882;28;88840;-67
2022/05/19 05:42:33;;;;;;;1.83;1.67;;;23.00;61.80;;;;;;4934585;28;88746;-66
2022/05/19 05:44:59;;;;;;;2.13;1.50;;;23.00;61.90;;;;;;4949404;28;88247;-67
2022/05/19 05:47:25;;;;;;;2.08;1.63;;;23.00;61.80;;;;;;4951768;28;87607;-66
2022/05/19 05:49:50;;;;;;;1.52;1.42;;;23.00;61.80;;;;;;4929674;28;91045;-67
2022/05/19 05:52:16;;;;;;;1.80;1.70;;;23.00;62.00;;;;;;4946086;28;88114;-67
2022/05/19 05:54:41;;;;;;;1.98;1.52;;;23.00;61.80;;;;;;4950554;28;87802;-67
2022/05/19 05:57:07;;;;;;;2.05;1.83;;;23.00;61.70;;;;;;4939305;28;88013;-66
2022/05/19 05:59:33;;;;;;;3.28;1.60;;;23.00;61.70;;;;;;4937514;28;87671;-66
2022/05/19 06:01:58;;;;;;;2.05;1.80;;;23.00;61.80;;;;;;4933445;28;88038;-69
2022/05/19 06:04:24;;;;;;;1.45;1.35;;;23.00;61.80;;;;;;4951672;28;87481;-69
2022/05/19 06:06:51;;;;;;;1.92;1.70;;;23.00;61.80;;;;;;4950865;28;88320;-69
2022/05/19 06:09:17;;;;;;;1.55;1.45;;;23.00;61.90;;;;;;4934261;28;87416;-68
2022/05/19 06:11:43;;;;;;;1.45;1.35;;;23.00;61.60;;;;;;4931519;28;87684;-68
2022/05/19 06:14:09;;;;;;;2.35;1.60;;;23.00;61.60;;;;;;4931242;28;91038;-69
2022/05/19 06:16:35;;;;;;;2.00;1.70;;;23.00;60.40;;;;;;4930916;28;86978;-69
2022/05/19 06:19:01;;;;;;;1.48;1.38;;;23.00;61.00;;;;;;4942089;28;87764;-69
2022/05/19 06:21:26;;;;;;;1.63;1.50;;;23.00;60.70;;;;;;4939329;28;90218;-69
2022/05/19 06:23:52;;;;;;;8.15;2.00;;;23.00;60.30;;;;;;4931935;28;87833;-68
2022/05/19 06:26:18;;;;;;;1.85;1.58;;;23.00;60.90;;;;;;4945310;28;88045;-68
2022/05/19 06:28:43;;;;;;;5.15;1.60;;;23.00;58.80;;;;;;4941508;28;87644;-69
2022/05/19 06:31:09;;;;;;;11.27;2.67;;;23.00;60.00;;;;;;4931101;28;88906;-68
2022/05/19 06:33:36;;;;;;;3.45;1.88;;;23.10;61.30;;;;;;4931281;28;88959;-68
2022/05/19 06:36:04;;;;;;;7.50;2.17;;;23.00;60.30;;;;;;4932231;28;87902;-68
2022/05/19 06:38:31;;;;;;;9.10;2.45;;;23.00;60.90;;;;;;4932753;28;87660;-66
2022/05/19 06:42:00;;;;;;;8.93;2.47;;;23.10;62.60;;;;;;4941337;28;88408;-66
2022/05/19 06:43:46;;;;;;;6.90;3.50;;;23.00;61.70;;;;;;4944924;28;88509;-65
2022/05/19 06:46:12;;;;;;;6.20;4.05;;;23.00;62.80;;;;;;4933704;28;87442;-67
2022/05/19 06:48:38;;;;;;;7.57;3.30;;;23.00;63.30;;;;;;4932159;28;87285;-66
2022/05/19 06:51:04;;;;;;;8.48;3.70;;;23.00;62.80;;;;;;4947412;28;88404;-66
2022/05/19 06:53:29;;;;;;;7.82;4.10;;;23.10;64.90;;;;;;4947211;28;88124;-66
2022/05/19 06:55:55;;;;;;;9.40;4.13;;;23.10;65.90;;;;;;4938067;28;89732;-68
2022/05/19 06:58:21;;;;;;;7.82;4.75;;;23.10;66.00;;;;;;4950213;28;87756;-68
2022/05/19 07:00:47;;;;;;;11.98;4.95;;;23.10;65.50;;;;;;4946240;28;88084;-68
2022/05/19 07:03:12;;;;;;;8.20;4.05;;;23.10;65.40;;;;;;4941597;28;86952;-68
2022/05/19 07:05:39;;;;;;;13.68;6.22;;;23.10;64.70;;;;;;4946076;28;88812;-67
2022/05/19 07:08:06;;;;;;;17.38;6.53;;;23.00;66.10;;;;;;4889649;28;88779;-67
2022/05/19 07:10:33;;;;;;;14.48;6.07;;;23.00;67.60;;;;;;4958785;28;88359;-66
2022/05/19 07:12:59;;;;;;;11.48;6.47;;;23.00;67.70;;;;;;4950616;28;87288;-66
2022/05/19 07:15:27;;;;;;;9.43;5.80;;;23.00;68.00;;;;;;4948808;28;87063;-65
2022/05/19 07:17:53;;;;;;;13.02;6.13;;;23.00;68.10;;;;;;4935881;28;87809;-66
2022/05/19 07:23:06;;;;;;;79.43;19.50;;;23.00;68.50;;;;;;4933688;28;88076;-66
2022/05/19 07:25:32;;;;;;;87.70;20.45;;;23.00;68.70;;;;;;4936686;28;88185;-65
2022/05/19 07:27:58;;;;;;;51.60;15.52;;;23.00;68.50;;;;;;4940363;28;87836;-65
2022/05/19 07:30:24;;;;;;;43.70;12.95;;;23.00;68.90;;;;;;4933803;28;87670;-66
2022/05/19 07:32:50;;;;;;;33.92;11.40;;;23.10;69.00;;;;;;4933358;28;87339;-65
2022/05/19 07:35:17;;;;;;;28.77;9.38;;;23.10;69.40;;;;;;4937360;28;87016;-66
2022/05/19 07:37:43;;;;;;;28.63;10.38;;;23.10;69.50;;;;;;4933895;28;87420;-66
2022/05/19 07:40:09;;;;;;;21.80;8.65;;;23.10;69.60;;;;;;4951544;28;87894;-66
2022/05/19 07:42:35;;;;;;;21.98;7.90;;;23.20;69.70;;;;;;4951927;28;89744;-66
2022/05/19 07:45:01;;;;;;;24.02;9.55;;;23.20;69.50;;;;;;4939391;28;90068;-67
2022/05/19 07:47:29;;;;;;;27.75;8.90;;;23.20;69.20;;;;;;4950355;28;87820;-66
2022/05/19 07:49:56;;;;;;;22.27;7.97;;;23.20;69.10;;;;;;4949406;28;88891;-67
2022/05/19 07:52:22;;;;;;;16.45;7.57;;;23.20;69.40;;;;;;4952663;28;88851;-66
2022/05/19 07:54:48;;;;;;;18.40;7.07;;;23.20;69.40;;;;;;4952468;28;87761;-66
2022/05/19 07:57:14;;;;;;;17.67;7.38;;;23.20;69.00;;;;;;4951372;28;89326;-66
2022/05/19 07:59:40;;;;;;;18.65;8.00;;;23.20;68.90;;;;;;4933371;28;88289;-67
2022/05/19 08:02:07;;;;;;;17.98;7.32;;;23.20;68.60;;;;;;4952899;28;87254;-66
2022/05/19 08:04:33;;;;;;;18.52;7.65;;;23.20;68.80;;;;;;4951929;28;87271;-65
2022/05/19 08:07:01;;;;;;;15.48;7.38;;;23.20;69.00;;;;;;4932675;28;87739;-65
2022/05/19 08:12:16;;;;;;;15.80;6.47;;;23.20;68.80;;;;;;4933487;28;88012;-66
2022/05/19 08:17:27;;;;;;;17.23;6.75;;;23.20;68.60;;;;;;4934528;28;87679;-66
2022/05/19 08:19:52;;;;;;;15.30;6.35;;;23.20;68.30;;;;;;4953477;28;87680;-65
2022/05/19 08:22:18;;;;;;;19.42;7.35;;;23.20;68.40;;;;;;4953092;28;88151;-66
2022/05/19 08:24:49;;;;;;;13.82;6.43;;;23.20;68.10;;;;;;4953367;28;87906;-66
2022/05/19 08:27:16;;;;;;;14.05;6.80;;;23.20;68.30;;;;;;4953726;28;86904;-66
2022/05/19 08:29:41;;;;;;;14.45;7.18;;;23.20;68.30;;;;;;4952515;28;87727;-66
2022/05/19 08:32:07;;;;;;;16.13;6.38;;;23.20;68.00;;;;;;4952963;28;87649;-66
2022/05/19 08:34:33;;;;;;;14.65;6.57;;;23.30;68.10;;;;;;4952764;28;88811;-66
2022/05/19 08:36:58;;;;;;;16.98;7.40;;;23.30;67.80;;;;;;4951022;28;89086;-67
2022/05/19 08:39:25;;;;;;;11.45;6.47;;;23.30;67.90;;;;;;4950618;28;91027;-66
2022/05/19 08:41:58;;;;;;;13.25;6.53;;;23.30;68.00;;;;;;4951744;28;88354;-66
2022/05/19 08:44:32;;;;;;;12.55;6.65;;;23.30;67.80;;;;;;4951847;28;87500;-65
2022/05/19 08:47:01;;;;;;;13.80;6.07;;;23.30;67.90;;;;;;4938805;28;87719;-67
2022/05/19 08:49:45;;;;;;;20.70;7.60;;;23.30;67.80;;;;;;4933345;28;88538;-66
2022/05/19 08:52:25;;;;;;;14.45;6.72;;;23.30;67.80;;;;;;4932178;28;90934;-66
2022/05/19 08:54:52;;;;;;;;;;;23.30;67.80;;;;;;4933867;28;87077;-67
2022/05/19 08:57:25;;;;;;;11.73;6.28;;;23.30;67.60;;;;;;4934439;28;88026;-65
2022/05/19 08:59:58;;;;;;;12.00;6.72;;;23.30;67.80;;;;;;4932160;28;89198;-66
2022/05/19 09:02:46;;;;;;;12.35;6.70;;;23.30;67.50;;;;;;4932355;28;89041;-66
2022/05/19 09:05:27;;;;;;;11.23;6.13;;;23.40;67.70;;;;;;4933432;28;87869;-67
2022/05/19 09:08:19;;;;;;;12.35;6.82;;;23.40;67.60;;;;;;4946212;28;87334;-66
2022/05/19 09:10:58;;;;;;;10.85;6.47;;;23.40;67.40;;;;;;4952371;28;86958;-67
2022/05/19 09:13:51;;;;;;;11.38;5.82;;;23.40;67.40;;;;;;4952086;28;88247;-67
2022/05/19 09:16:26;;;;;;;12.07;6.15;;;23.40;67.50;;;;;;4952752;28;86951;-66
2022/05/19 09:19:04;;;;;;;15.93;7.20;;;23.40;67.20;;;;;;4952754;28;86929;-66
2022/05/19 09:21:30;;;;;;;14.82;7.10;;;23.40;67.40;;;;;;4952061;28;88278;-66
2022/05/19 09:23:56;;;;;;;11.48;6.18;;;23.40;67.10;;;;;;4952190;28;87316;-65
2022/05/19 09:26:33;;;;;;;10.57;6.07;;;23.40;67.30;;;;;;4941633;28;88382;-66
2022/05/19 09:29:07;;;;;;;13.90;6.15;;;23.40;67.40;;;;;;4943103;28;87376;-66
2022/05/19 09:31:45;;;;;;;10.35;6.40;;;23.40;67.10;;;;;;4947482;28;88699;-66
2022/05/19 09:34:11;;;;;;;10.90;5.73;;;23.40;67.10;;;;;;4932563;28;87793;-67
2022/05/19 09:36:48;;;;;;;13.70;6.18;;;23.40;67.20;;;;;;4931823;28;87749;-66
2022/05/19 09:39:17;;;;;;;9.25;5.95;;;23.40;67.10;;;;;;4932851;28;87869;-66
2022/05/19 09:41:51;;;;;;;8.65;5.82;;;23.40;67.00;;;;;;4932275;28;88185;-67
2022/05/19 09:44:27;;;;;;;10.20;5.80;;;23.40;66.90;;;;;;4932744;28;87750;-66
2022/05/19 09:46:54;;;;;;;9.43;5.57;;;23.40;67.00;;;;;;4942794;28;87646;-66
2022/05/19 09:49:19;;;;;;;12.07;6.18;;;23.40;67.00;;;;;;4951645;28;87867;-66
2022/05/19 09:51:49;;;;;;;10.55;5.63;;;23.40;66.90;;;;;;4940743;28;88980;-66
2022/05/19 09:54:15;;;;;;;11.60;5.82;;;23.40;66.80;;;;;;4946502;28;88792;-66
2022/05/19 09:56:47;;;;;;;9.93;6.20;;;23.40;66.70;;;;;;4941170;28;88242;-65
2022/05/19 09:59:19;;;;;;;10.20;5.72;;;23.40;66.80;;;;;;4936736;28;87692;-66
2022/05/19 10:01:47;;;;;;;12.85;5.93;;;23.50;66.70;;;;;;4934972;28;88498;-66
2022/05/19 10:04:24;;;;;;;9.10;5.97;;;23.50;66.30;;;;;;4932366;28;88115;-67
2022/05/19 10:06:51;;;;;;;9.30;5.50;;;23.50;66.60;;;;;;5102740;22;87097;-65
2022/05/19 10:09:29;;;;;;;9.48;5.72;;;23.50;66.70;;;;;;4964073;28;86797;-66
2022/05/19 10:12:11;;;;;;;10.95;5.88;;;23.50;66.80;;;;;;4961009;28;87594;-67
2022/05/19 10:14:39;;;;;;;9.00;5.45;;;23.50;66.50;;;;;;4957682;28;90360;-66
2022/05/19 10:17:15;;;;;;;10.60;5.85;;;23.50;66.40;;;;;;4961097;28;88551;-66
2022/05/19 10:20:16;;;;;;;12.45;5.22;;;23.50;66.60;;;;;;4962587;28;89669;-66
2022/05/19 10:22:50;;;;;;;8.57;5.00;;;23.50;66.40;;;;;;4962064;28;87574;-66
2022/05/19 10:25:35;;;;;;;7.90;4.68;;;23.50;66.30;;;;;;4966197;28;87864;-66
2022/05/19 10:31:53;;;;;;;10.88;5.50;;;23.60;66.40;;;;;;4960545;28;88037;-67
2022/05/19 10:34:49;;;;;;;9.27;5.15;;;23.60;66.20;;;;;;4952640;28;91289;-66
2022/05/19 10:37:53;;;;;;;11.43;5.07;;;23.60;65.20;;;;;;4951385;28;87860;-66
2022/05/19 10:40:34;;;;;;;10.13;4.78;;;23.60;65.80;;;;;;4959860;28;88121;-67
2022/05/19 10:43:16;;;;;;;9.60;4.75;;;23.60;67.10;;;;;;4962429;28;89557;-66
2022/05/19 10:45:49;;;;;;;9.88;4.75;;;23.60;66.70;;;;;;4965669;28;88637;-66
2022/05/19 10:48:30;;;;;;;7.78;4.50;;;23.60;67.10;;;;;;4956342;28;90991;-67
2022/05/19 10:51:25;;;;;;;13.05;4.70;;;23.60;67.20;;;;;;4951300;28;87318;-67
2022/05/19 10:53:54;;;;;;;13.82;4.97;;;23.50;67.30;;;;;;4933068;28;87585;-67
2022/05/19 10:56:43;;;;;;;15.40;4.75;;;23.60;67.70;;;;;;4960665;28;88969;-66
2022/05/19 10:59:53;;;;;;;12.52;4.78;;;23.60;68.00;;;;;;4962406;28;88103;-66
2022/05/19 11:02:34;;;;;;;15.15;5.20;;;23.60;67.10;;;;;;4941432;28;87930;-67
2022/05/19 11:05:02;;;;;;;15.65;5.10;;;23.60;68.50;;;;;;4955994;28;86964;-66
2022/05/19 11:07:38;;;;;;;13.23;5.10;;;23.60;69.10;;;;;;4945202;28;90691;-67
2022/05/19 11:10:26;;;;;;;11.30;5.28;;;23.60;68.80;;;;;;4952318;28;88052;-67
2022/05/19 11:13:04;;;;;;;10.98;4.43;;;23.60;69.40;;;;;;4953072;28;88404;-67
2022/05/19 11:15:55;;;;;;;13.02;5.05;;;23.60;67.90;;;;;;4954042;28;87469;-66
2022/05/19 11:18:44;;;;;;;8.27;4.55;;;23.60;67.30;;;;;;4972536;28;87519;-67
2022/05/19 11:21:33;;;;;;;8.27;4.85;;;23.60;67.70;;;;;;4971192;28;92054;-67
2022/05/19 11:24:08;;;;;;;9.73;3.92;;;23.50;67.90;;;;;;4953742;28;88319;-67
2022/05/19 11:26:42;;;;;;;13.65;4.80;;;23.60;67.90;;;;;;4969952;28;88950;-67
2022/05/19 11:29:44;;;;;;;10.43;5.07;;;23.50;67.90;;;;;;4935920;28;89582;-67
2022/05/19 11:32:32;;;;;;;10.15;4.80;;;23.50;68.10;;;;;;4955564;28;87889;-66
2022/05/19 11:35:25;;;;;;;11.00;4.40;;;23.50;68.50;;;;;;4953772;28;87767;-67
2022/05/19 11:38:21;;;;;;;10.20;4.30;;;23.60;68.80;;;;;;4961153;28;88513;-67
2022/05/19 11:40:56;;;;;;;12.68;4.47;;;23.60;68.40;;;;;;4970122;28;92168;-67
2022/05/19 11:43:46;;;;;;;11.88;4.70;;;23.60;68.50;;;;;;4970152;28;91665;-67
2022/05/19 11:46:18;;;;;;;12.77;4.55;;;23.60;68.80;;;;;;4957284;28;88390;-67
2022/05/19 11:55:12;;;;;;;8.75;4.20;;;23.60;68.00;;;;;;4954518;28;88149;-67
2022/05/19 11:58:01;;;;;;;12.30;4.03;;;23.50;67.90;;;;;;4951508;28;87717;-66
2022/05/19 12:00:41;;;;;;;16.33;4.72;;;23.50;68.50;;;;;;4955226;28;87062;-67
2022/05/19 12:03:14;;;;;;;11.75;4.45;;;23.50;68.10;;;;;;4960402;28;89163;-67
2022/05/19 12:06:02;;;;;;;11.25;4.28;;;23.50;69.00;;;;;;4951895;28;88151;-66
2022/05/19 12:08:41;;;;;;;10.43;4.43;;;23.50;69.10;;;;;;4950620;28;88406;-67
2022/05/19 12:11:37;;;;;;;8.68;5.07;;;23.50;68.20;;;;;;4953242;28;87117;-67
2022/05/19 12:14:08;;;;;;;9.95;4.13;;;23.50;69.00;;;;;;4953019;28;88094;-66
2022/05/19 12:16:52;;;;;;;10.85;3.70;;;23.50;69.00;;;;;;4955751;28;91331;-67
2022/05/19 12:19:33;;;;;;;13.05;3.70;;;23.50;68.90;;;;;;4973105;28;87446;-67
2022/05/19 12:21:59;;;;;;;8.07;2.90;;;23.50;68.60;;;;;;4955982;28;87296;-66
2022/05/19 12:24:50;;;;;;;10.70;4.30;;;23.50;67.70;;;;;;4960889;28;88094;-66
2022/05/19 12:27:23;;;;;;;6.57;3.15;;;23.50;67.50;;;;;;4968012;28;90969;-66
2022/05/19 12:33:10;;;;;;;4.93;3.00;;;23.50;66.90;;;;;;4957182;28;87236;-66
2022/05/19 12:35:38;;;;;;;14.88;3.28;;;23.50;66.90;;;;;;4950698;28;91268;-66
2022/05/19 12:38:25;;;;;;;7.35;2.50;;;23.50;67.00;;;;;;4951909;28;88642;-65
2022/05/19 12:41:03;;;;;;;8.23;2.67;;;23.60;67.30;;;;;;4949551;28;88491;-67
2022/05/19 12:43:39;;;;;;;7.65;2.75;;;23.60;67.10;;;;;;4949193;28;87593;-67
2022/05/19 12:46:09;;;;;;;10.25;2.50;;;23.60;66.80;;;;;;4956368;28;88610;-67
2022/05/19 12:48:35;;;;;;;7.60;2.25;;;23.60;66.80;;;;;;4968017;28;87850;-67
2022/05/19 12:51:11;;;;;;;8.55;2.58;;;23.60;66.90;;;;;;4968868;28;87741;-66
2022/05/19 12:53:46;;;;;;;9.85;2.53;;;23.60;67.20;;;;;;4971720;28;87020;-66
2022/05/19 12:56:40;;;;;;;5.57;2.00;;;23.60;67.10;;;;;;4953708;28;87787;-66
2022/05/19 12:59:33;;;;;;;6.13;2.05;;;23.60;66.40;;;;;;4950838;28;87840;-66
2022/05/19 13:02:03;;;;;;;3.53;1.80;;;23.60;66.20;;;;;;4947694;28;88754;-66
2022/05/19 13:04:29;;;;;;;6.70;1.90;;;23.60;66.10;;;;;;4953811;28;88212;-66
2022/05/19 13:07:05;;;;;;;6.13;2.20;;;23.60;66.20;;;;;;4968548;28;88662;-66
2022/05/19 13:09:33;;;;;;;4.57;1.88;;;23.60;66.10;;;;;;4949556;28;87317;-65
2022/05/19 13:12:24;;;;;;;5.18;1.88;;;23.50;65.70;;;;;;4951198;28;87409;-67
2022/05/19 13:14:59;;;;;;;4.30;1.77;;;23.60;65.80;;;;;;4951946;28;88269;-67
2022/05/19 13:17:43;;;;;;;3.80;1.85;;;23.50;65.70;;;;;;4949800;28;89290;-66
2022/05/19 13:20:21;;;;;;;4.07;1.55;;;23.50;65.40;;;;;;4953393;28;87286;-66
2022/05/19 13:22:50;;;;;;;4.15;1.85;;;23.50;66.00;;;;;;4952161;28;87667;-66
2022/05/19 13:25:18;;;;;;;5.10;1.83;;;23.50;66.20;;;;;;4951744;28;87797;-66
2022/05/19 13:30:46;;;;;;;3.15;1.88;;;23.50;65.80;;;;;;4959471;28;87393;-66